Terminal Aerodrome Forecast
Issued by NWS

Home | Current Version | Previous Version | Text Only | Print | Product List | Glossary On
Versions: 1 2 3 4 5 6 7 8 9 10 11 12 13 14 15 16 17 18
000
FTUS44 KLIX 131100
TAFMCB
TAF
KMCB 131134Z 1312/1412 00000KT P6SM SCT060
     FM131800 19004KT P6SM VCTS SCT050CB
     FM132200 19004KT P6SM SCT060
     FM140700 00000KT P6SM SCT110
      TEMPO 1410/1412 5SM BR=

USA.gov is the U.S. government's official web portal to all federal, state and local government web resources and services.